Stones Mill, Virginia
Current Conditions -  °F | °C
As of 7:15 AM on Thursday 29 Jan 2015 (Local Time) from KMKJ Reporting Station
Clear Clear  
Wind Chill: 24°   Ceiling: Unl
Heat Index: 24°   Visibility: 10mi
Dew Point: 18°   Wind: 3mph
Humidity: 77%   Direction: 130°SE
Pressure: 30.19"   Gusts: NA
Location:  36.9511°N, 81.112°W
Report Text: KMKJ 291215Z AUTO 13003KT 10SM CLR M04/M08 A3019 RMK AO2 T10421077
Loading
Personal Weather Stations






























Interactive Weather Map New forecast layout! Learn more

10-Day Weather Forecast

Advertisements
Track Severe Weather on mobile